logo
Search for airport 
image banner adimage banner adimage banner ad
image banner ad

MMRCF - Aeropista De La Region Carbonifera

Located in Sabinas, Mexico

ICAO - , IATA -

Data provided by Airmate  

General information

Coordinates: N27°58'28" W101°12'45"
Elevation is 1279 feet MSL.
Magnetic variation is 4° East
View others Airports in Coahuila

Operational data

Special qualification required
Current time UTC:
Current local time:
Weather at : - ( 0 km )
METAR: LWSK 251720Z VRB01KT 9999 FEW049 SCT068 21/15 Q1014 NOSIG
View NOTAMs / SUP AIP / TFR affecting this airport [VIEW]
Communications frequencies: [VIEW]

Runways:

RWY identifierQFULength (ft)Width (ft)SurfaceLDA (ft)
30303°590099ASPH
12123°590099ASPH

Airport contact information

Address: Sabinas Mexico

Satellite view of MMRCF